createdAt,value
2022-10-04T00:05:04.123Z,23.55
2022-10-04T00:11:02.966Z,14.60
2022-10-04T00:16:50.840Z,10.68
2022-10-04T00:22:37.552Z,13.93
2022-10-04T00:28:24.611Z,13.15
2022-10-04T00:34:11.243Z,13.45
2022-10-04T00:40:16.235Z,11.18
2022-10-04T00:46:07.082Z,15.05
2022-10-04T00:52:02.486Z,16.35
2022-10-04T00:57:54.135Z,18.83
2022-10-04T01:03:46.508Z,13.18
2022-10-04T01:09:36.932Z,12.15
2022-10-04T01:15:31.963Z,10.90
2022-10-04T01:21:18.716Z,8.55
2022-10-04T01:27:30.915Z,12.88
2022-10-04T01:33:17.588Z,16.57
2022-10-04T01:39:05.350Z,6.82
2022-10-04T01:45:15.561Z,15.38
2022-10-04T01:51:08.869Z,13.10
2022-10-04T01:57:10.867Z,12.45
2022-10-04T02:03:18.588Z,10.43
2022-10-04T02:09:19.658Z,8.93
2022-10-04T02:15:11.629Z,8.88
2022-10-04T02:20:59.773Z,15.20
2022-10-04T02:26:52.036Z,7.38
2022-10-04T02:33:00.388Z,8.73
2022-10-04T02:39:12.591Z,11.52
2022-10-04T02:45:06.406Z,9.00
2022-10-04T02:50:55.709Z,10.52
2022-10-04T02:56:42.961Z,11.45
2022-10-04T03:02:31.175Z,13.05
2022-10-04T03:08:18.231Z,15.10
2022-10-04T03:14:10.302Z,11.27
2022-10-04T03:19:57.848Z,15.10
2022-10-04T03:25:53.532Z,9.00
2022-10-04T03:31:44.246Z,7.10
2022-10-04T03:37:35.265Z,7.75
2022-10-04T03:43:34.454Z,12.10
2022-10-04T03:49:33.898Z,10.98
2022-10-04T03:55:23.201Z,8.70
2022-10-04T04:01:16.402Z,8.93
2022-10-04T04:07:05.603Z,8.68
2022-10-04T04:12:57.309Z,7.90
2022-10-04T04:18:45.115Z,12.50
2022-10-04T04:24:32.262Z,13.60
2022-10-04T04:30:19.759Z,6.45
2022-10-04T04:36:07.695Z,7.13
2022-10-04T04:41:54.563Z,11.27
2022-10-04T04:47:49.760Z,6.82
2022-10-04T04:53:36.468Z,3.22
2022-10-04T04:59:25.867Z,6.10
2022-10-04T05:05:24.067Z,6.05
2022-10-04T05:11:16.474Z,6.93
2022-10-04T05:17:03.218Z,7.88
2022-10-04T05:22:51.285Z,4.50
2022-10-04T05:28:38.284Z,4.00
2022-10-04T05:34:35.231Z,5.22
2022-10-04T05:40:41.653Z,10.18
2022-10-04T05:46:34.800Z,4.32
2022-10-04T05:52:35.920Z,4.80
2022-10-04T05:58:42.241Z,2.72
2022-10-04T06:04:46.307Z,4.43
2022-10-04T06:11:16.769Z,1.93
2022-10-04T06:17:20.577Z,2.67
2022-10-04T06:23:15.804Z,3.00
2022-10-04T06:29:09.402Z,8.82
2022-10-04T06:35:20.819Z,2.25
2022-10-04T06:41:22.117Z,2.25
2022-10-04T06:47:35.317Z,1.15
2022-10-04T06:53:25.768Z,2.25
2022-10-04T06:59:41.988Z,4.35
2022-10-04T07:05:35.069Z,4.43
2022-10-04T07:11:46.733Z,0.82
2022-10-04T07:17:41.987Z,1.55
2022-10-04T07:23:53.683Z,3.28
2022-10-04T07:29:46.105Z,1.13
2022-10-04T07:35:45.479Z,2.33
2022-10-04T07:41:42.106Z,1.88
2022-10-04T07:47:30.691Z,3.80
2022-10-04T07:53:20.809Z,1.98
2022-10-04T07:59:20.348Z,1.30
2022-10-04T08:05:38.004Z,3.22
2022-10-04T08:11:45.971Z,2.05
2022-10-04T08:17:57.439Z,1.85
2022-10-04T08:24:16.122Z,3.17
2022-10-04T08:30:44.613Z,1.85
2022-10-04T08:37:19.305Z,1.10
2022-10-04T08:44:03.328Z,1.70
2022-10-04T08:50:21.170Z,5.05
2022-10-04T08:57:01.248Z,2.33
2022-10-04T09:03:21.711Z,1.95
2022-10-04T09:09:23.295Z,0.70
2022-10-04T09:15:43.251Z,4.70
2022-10-04T09:22:00.112Z,1.77
2022-10-04T09:27:55.223Z,3.85
2022-10-04T09:34:07.092Z,1.35
2022-10-04T09:39:54.204Z,5.57
2022-10-04T09:46:08.343Z,1.30
2022-10-04T09:52:25.206Z,6.70
2022-10-04T09:58:49.052Z,2.35
2022-10-04T10:05:07.581Z,6.28
2022-10-04T10:11:34.329Z,1.95
2022-10-04T10:17:36.537Z,1.45
2022-10-04T10:23:26.641Z,1.60
2022-10-04T10:29:28.417Z,0.90
2022-10-04T10:35:32.639Z,0.68
2022-10-04T10:41:48.944Z,0.25
2022-10-04T10:48:19.375Z,2.22
2022-10-04T10:54:58.065Z,0.57
2022-10-04T11:00:55.197Z,1.58
2022-10-04T11:07:23.095Z,1.10
2022-10-04T11:13:28.562Z,1.00
2022-10-04T11:19:42.795Z,3.80
2022-10-04T11:25:45.183Z,1.13
2022-10-04T11:31:56.709Z,1.42
2022-10-04T11:39:05.691Z,1.30
2022-10-04T11:45:17.676Z,1.95
2022-10-04T11:51:38.440Z,2.47
2022-10-04T11:58:12.144Z,3.38
2022-10-04T12:04:56.600Z,5.70
2022-10-04T12:11:06.305Z,1.95
2022-10-04T12:17:30.385Z,2.50
2022-10-04T12:23:54.919Z,2.22
2022-10-04T12:30:26.945Z,6.05
2022-10-04T12:36:52.527Z,1.00
2022-10-04T12:42:52.902Z,3.42
2022-10-04T12:48:57.226Z,5.50
2022-10-04T12:54:46.226Z,2.30
2022-10-04T13:00:40.992Z,0.40
2022-10-04T13:06:34.641Z,5.40
2022-10-04T13:12:39.922Z,3.42
2022-10-04T13:18:30.928Z,5.55
2022-10-04T13:24:57.915Z,2.47
2022-10-04T13:31:02.245Z,4.78
2022-10-04T13:37:32.330Z,14.68
2022-10-04T13:43:57.222Z,2.00
2022-10-04T13:50:09.095Z,2.63
2022-10-04T14:12:04.160Z,2.22
2022-10-04T14:18:34.854Z,1.40
2022-10-04T14:40:23.780Z,2.25
2022-10-04T15:23:35.787Z,4.07
2022-10-04T15:35:20.487Z,6.43
2022-10-04T15:41:40.188Z,5.88
2022-10-04T15:47:52.111Z,2.28
2022-10-04T15:54:12.892Z,3.00
2022-10-04T16:00:13.385Z,2.58
2022-10-04T16:06:13.795Z,1.00
2022-10-04T16:12:33.057Z,2.15
2022-10-04T16:18:42.915Z,6.13
2022-10-04T16:25:02.723Z,1.60
2022-10-04T16:31:20.438Z,2.63
2022-10-04T16:37:45.027Z,2.63
2022-10-04T16:43:34.247Z,1.70
2022-10-04T16:49:59.107Z,5.70
2022-10-04T16:55:58.008Z,5.25
2022-10-04T17:01:54.286Z,2.78
2022-10-04T17:08:16.369Z,1.40
2022-10-04T17:14:42.648Z,3.70
2022-10-04T17:20:44.135Z,3.80
2022-10-04T17:27:19.300Z,4.30
2022-10-04T17:33:24.737Z,1.33
2022-10-04T17:39:28.802Z,1.08
2022-10-04T17:45:47.271Z,2.05
2022-10-04T17:52:02.622Z,2.30
2022-10-04T17:58:15.329Z,4.88
2022-10-04T18:10:12.740Z,13.25
2022-10-04T18:16:16.612Z,6.25
2022-10-04T18:22:16.134Z,1.25
2022-10-04T18:28:13.724Z,3.38
2022-10-04T18:34:18.306Z,1.40
2022-10-04T18:40:22.393Z,3.47
2022-10-04T18:46:23.073Z,1.45
2022-10-04T18:52:09.930Z,2.53
2022-10-04T18:58:40.033Z,0.73
2022-10-04T19:04:46.266Z,1.15
2022-10-04T19:10:37.510Z,3.83
2022-10-04T19:16:41.250Z,2.33
2022-10-04T19:22:46.668Z,5.10
2022-10-04T19:28:36.341Z,10.05
2022-10-04T19:34:54.050Z,3.00
2022-10-04T19:40:45.076Z,6.95
2022-10-04T19:46:47.024Z,4.28
2022-10-04T19:52:40.723Z,3.60
2022-10-04T19:58:53.381Z,3.63
2022-10-04T20:04:43.848Z,4.50
2022-10-04T20:10:34.725Z,4.13
2022-10-04T20:17:00.268Z,3.60
2022-10-04T20:22:50.161Z,4.82
2022-10-04T20:28:43.145Z,9.60
2022-10-04T20:35:35.465Z,8.77
2022-10-04T20:41:51.800Z,5.13
2022-10-04T21:02:17.214Z,7.88
2022-10-04T21:48:53.460Z,6.47
2022-10-04T22:23:51.377Z,7.32
2022-10-04T22:29:39.752Z,2.03
2022-10-04T22:35:44.434Z,4.78
2022-10-04T22:42:30.604Z,0.70
2022-10-04T22:48:17.434Z,3.15
2022-10-04T22:54:29.321Z,3.08
2022-10-04T23:00:18.665Z,5.80
2022-10-04T23:06:06.011Z,3.33
2022-10-04T23:11:52.740Z,4.97
2022-10-04T23:17:39.840Z,3.33
2022-10-04T23:23:28.339Z,9.57
2022-10-04T23:45:27.354Z,5.00
2022-10-04T23:51:18.441Z,1.75
2022-10-04T23:57:09.761Z,1.75
